createdAt,value
2023-05-05T00:02:04.196Z,101574.44
2023-05-05T00:04:30.592Z,101584.00
2023-05-05T00:06:57.237Z,101588.50
2023-05-05T00:09:23.665Z,101594.09
2023-05-05T00:11:50.029Z,101590.66
2023-05-05T00:14:16.406Z,101596.47
2023-05-05T00:16:43.082Z,101592.16
2023-05-05T00:19:09.501Z,101597.19
2023-05-05T00:21:35.880Z,101597.47
2023-05-05T00:24:02.283Z,101604.44
2023-05-05T00:26:28.724Z,101602.59
2023-05-05T00:28:55.232Z,101598.34
2023-05-05T00:31:21.728Z,101583.19
2023-05-05T00:33:48.184Z,101586.94
2023-05-05T00:36:14.771Z,101591.34
2023-05-05T00:38:41.192Z,101590.09
2023-05-05T00:41:07.632Z,101588.22
2023-05-05T00:43:34.135Z,101582.69
2023-05-05T00:46:23.786Z,101588.50
2023-05-05T00:48:50.906Z,101593.53
2023-05-05T00:51:17.814Z,101587.44
2023-05-05T00:53:45.173Z,101584.47
2023-05-05T00:56:15.966Z,101583.09
2023-05-05T00:58:43.147Z,101586.28
2023-05-05T01:01:10.731Z,101583.09
2023-05-05T01:03:38.705Z,101585.25
2023-05-05T01:06:31.669Z,101579.16
2023-05-05T01:09:23.983Z,101557.72
2023-05-05T01:12:04.421Z,101568.34
2023-05-05T01:14:43.249Z,101563.03
2023-05-05T01:17:21.353Z,101567.91
2023-05-05T01:20:15.489Z,101580.19
2023-05-05T01:22:49.917Z,101570.94
2023-05-05T01:25:49.070Z,101572.22
2023-05-05T01:28:34.668Z,101557.66
2023-05-05T01:31:23.747Z,101563.97
2023-05-05T01:33:55.134Z,101566.91
2023-05-05T01:36:27.823Z,101560.75
2023-05-05T01:38:59.744Z,101554.03
2023-05-05T01:41:41.145Z,101568.63
2023-05-05T01:44:09.761Z,101567.81
2023-05-05T01:46:36.787Z,101564.56
2023-05-05T01:49:04.937Z,101558.19
2023-05-05T01:51:32.271Z,101562.03
2023-05-05T01:54:01.061Z,101564.69
2023-05-05T01:56:28.755Z,101570.53
2023-05-05T01:58:55.819Z,101574.25
2023-05-05T02:01:24.638Z,101558.69
2023-05-05T02:03:51.267Z,101569.06
2023-05-05T02:06:19.387Z,101555.84
2023-05-05T02:08:47.102Z,101562.66
2023-05-05T02:11:14.021Z,101570.31
2023-05-05T02:13:42.623Z,101581.81
2023-05-05T02:16:10.212Z,101575.91
2023-05-05T02:18:37.433Z,101587.84
2023-05-05T02:21:04.019Z,101590.78
2023-05-05T02:23:30.630Z,101569.53
2023-05-05T02:26:03.670Z,101569.84
2023-05-05T02:28:47.461Z,101578.00
2023-05-05T02:31:14.152Z,101576.69
2023-05-05T02:33:41.761Z,101573.06
2023-05-05T02:36:14.490Z,101570.72
2023-05-05T02:38:43.761Z,101557.69
2023-05-05T02:41:12.526Z,101556.06
2023-05-05T02:43:41.506Z,101566.41
2023-05-05T02:46:07.976Z,101574.84
2023-05-05T02:48:34.606Z,101570.13
2023-05-05T02:51:01.057Z,101568.84
2023-05-05T02:53:27.948Z,101569.44
2023-05-05T02:56:06.109Z,101572.97
2023-05-05T02:58:54.643Z,101580.13
2023-05-05T03:01:33.108Z,101578.63
2023-05-05T03:04:11.470Z,101579.47
2023-05-05T03:06:41.428Z,101577.63
2023-05-05T03:09:25.177Z,101577.09
2023-05-05T03:12:01.054Z,101575.47
2023-05-05T03:14:30.627Z,101585.81
2023-05-05T03:16:59.735Z,101588.44
2023-05-05T03:19:26.260Z,101591.41
2023-05-05T03:21:52.922Z,101594.31
2023-05-05T03:24:20.508Z,101602.28
2023-05-05T03:26:47.971Z,101600.41
2023-05-05T03:29:15.096Z,101611.81
2023-05-05T03:31:42.072Z,101618.22
2023-05-05T03:34:08.808Z,101621.94
2023-05-05T03:36:36.019Z,101628.84
2023-05-05T03:39:02.430Z,101626.19
2023-05-05T03:41:28.851Z,101624.59
2023-05-05T03:43:55.280Z,101626.53
2023-05-05T03:46:21.872Z,101636.09
2023-05-05T03:48:48.619Z,101638.25
2023-05-05T03:51:15.539Z,101634.31
2023-05-05T03:53:41.970Z,101628.53
2023-05-05T03:56:08.426Z,101618.41
2023-05-05T03:58:34.902Z,101612.59
2023-05-05T04:01:01.714Z,101613.94
2023-05-05T04:03:28.206Z,101624.06
2023-05-05T04:05:54.649Z,101627.53
2023-05-05T04:08:21.124Z,101642.19
2023-05-05T04:10:47.507Z,101642.47
2023-05-05T04:13:13.975Z,101645.38
2023-05-05T04:15:46.866Z,101651.59
2023-05-05T04:18:13.280Z,101659.03
2023-05-05T04:20:39.708Z,101663.88
2023-05-05T04:23:06.090Z,101663.66
2023-05-05T04:25:32.639Z,101674.78
2023-05-05T04:27:59.072Z,101673.69
2023-05-05T04:30:25.494Z,101682.97
2023-05-05T04:32:52.028Z,101684.81
2023-05-05T04:35:18.428Z,101684.25
2023-05-05T04:37:44.858Z,101684.25
2023-05-05T04:40:11.522Z,101691.66
2023-05-05T04:42:37.946Z,101692.44
2023-05-05T04:45:04.838Z,101690.59
2023-05-05T04:47:31.296Z,101694.03
2023-05-05T04:49:57.739Z,101698.00
2023-05-05T04:52:24.129Z,101702.72
2023-05-05T04:54:50.606Z,101696.63
2023-05-05T04:57:16.978Z,101707.75
2023-05-05T04:59:43.341Z,101708.00
2023-05-05T05:02:09.721Z,101707.22
2023-05-05T05:04:36.162Z,101713.03
2023-05-05T05:07:02.539Z,101711.47
2023-05-05T05:09:28.935Z,101705.91
2023-05-05T05:11:59.772Z,101700.88
2023-05-05T05:14:27.993Z,101714.38
2023-05-05T05:16:54.563Z,101717.28
2023-05-05T05:19:21.193Z,101716.22
2023-05-05T05:21:47.533Z,101718.31
2023-05-05T05:24:13.895Z,101717.00
2023-05-05T05:26:40.310Z,101722.81
2023-05-05T05:29:07.087Z,101725.19
2023-05-05T05:31:34.328Z,101724.91
2023-05-05T05:34:00.902Z,101724.91
2023-05-05T05:36:27.263Z,101728.34
2023-05-05T05:38:53.670Z,101734.97
2023-05-05T05:41:20.046Z,101729.91
2023-05-05T05:43:46.465Z,101730.69
2023-05-05T05:46:12.912Z,101732.00
2023-05-05T05:48:39.401Z,101729.84
2023-05-05T05:51:05.838Z,101735.16
2023-05-05T05:53:32.760Z,101736.44
2023-05-05T05:55:59.195Z,101736.66
2023-05-05T05:58:25.619Z,101744.06
2023-05-05T06:00:52.023Z,101741.41
2023-05-05T06:03:18.665Z,101740.06
2023-05-05T06:05:46.192Z,101737.66
2023-05-05T06:08:12.708Z,101734.72
2023-05-05T06:10:39.842Z,101737.09
2023-05-05T06:13:06.446Z,101730.91
2023-05-05T06:15:32.901Z,101733.78
2023-05-05T06:17:59.382Z,101727.91
2023-05-05T06:20:26.096Z,101723.44
2023-05-05T06:22:52.811Z,101748.56
2023-05-05T06:25:19.178Z,101748.50
2023-05-05T06:27:45.991Z,101746.28
2023-05-05T06:30:12.964Z,101744.16
2023-05-05T06:32:39.410Z,101741.72
2023-05-05T06:35:06.980Z,101738.19
2023-05-05T06:37:33.373Z,101747.19
2023-05-05T06:39:59.889Z,101747.41
2023-05-05T06:42:26.303Z,101748.94
2023-05-05T06:44:52.757Z,101751.81
2023-05-05T06:47:19.199Z,101750.16
2023-05-05T06:49:45.613Z,101746.44
2023-05-05T06:52:12.548Z,101750.59
2023-05-05T06:54:38.984Z,101753.75
2023-05-05T06:57:05.565Z,101750.22
2023-05-05T06:59:32.432Z,101761.06
2023-05-05T07:01:59.290Z,101762.88
2023-05-05T07:04:26.755Z,101764.47
2023-05-05T07:06:55.130Z,101762.03
2023-05-05T07:09:21.574Z,101772.28
2023-05-05T07:11:47.988Z,101777.00
2023-05-05T07:14:14.627Z,101778.31
2023-05-05T07:16:41.441Z,101775.88
2023-05-05T07:19:08.116Z,101780.91
2023-05-05T07:21:34.972Z,101786.16
2023-05-05T07:24:03.009Z,101781.81
2023-05-05T07:26:29.484Z,101784.41
2023-05-05T07:28:57.217Z,101793.16
2023-05-05T07:31:23.656Z,101787.47
2023-05-05T07:33:50.180Z,101787.38
2023-05-05T07:36:17.745Z,101788.28
2023-05-05T07:38:44.313Z,101778.13
2023-05-05T07:41:12.785Z,101777.75
2023-05-05T07:43:42.294Z,101780.34
2023-05-05T07:46:10.020Z,101778.41
2023-05-05T07:48:36.530Z,101790.81
2023-05-05T07:51:03.047Z,101777.50
2023-05-05T07:53:29.591Z,101786.50
2023-05-05T07:55:56.075Z,101786.91
2023-05-05T07:58:22.556Z,101779.94
2023-05-05T08:00:50.201Z,101779.97
2023-05-05T08:03:18.134Z,101783.19
2023-05-05T08:05:44.563Z,101776.28
2023-05-05T08:08:11.126Z,101768.94
2023-05-05T08:10:37.559Z,101772.59
2023-05-05T08:13:03.978Z,101778.66
2023-05-05T08:15:30.612Z,101783.72
2023-05-05T08:17:57.027Z,101776.69
2023-05-05T08:20:28.097Z,101793.56
2023-05-05T08:22:54.605Z,101784.56
2023-05-05T08:25:21.181Z,101789.91
2023-05-05T08:27:47.581Z,101791.00
2023-05-05T08:30:14.223Z,101790.69
2023-05-05T08:32:40.781Z,101786.41
2023-05-05T08:35:07.890Z,101791.84
2023-05-05T08:37:34.664Z,101786.75
2023-05-05T08:40:01.081Z,101791.38
2023-05-05T08:42:37.268Z,101785.22
2023-05-05T08:45:06.902Z,101789.84
2023-05-05T08:47:34.564Z,101804.34
2023-05-05T08:50:01.729Z,101807.28
2023-05-05T08:52:33.636Z,101812.19
2023-05-05T08:55:14.323Z,101809.09
2023-05-05T08:57:48.756Z,101810.81
2023-05-05T09:00:16.106Z,101812.44
2023-05-05T09:02:43.048Z,101812.28
2023-05-05T09:05:10.038Z,101817.63
2023-05-05T09:07:36.854Z,101819.34
2023-05-05T09:10:04.753Z,101808.31
2023-05-05T09:12:31.784Z,101815.06
2023-05-05T09:14:59.398Z,101818.38
2023-05-05T09:17:26.567Z,101812.69
2023-05-05T09:20:08.050Z,101815.25
2023-05-05T09:22:42.366Z,101818.56
2023-05-05T09:25:11.071Z,101810.84
2023-05-05T09:27:39.491Z,101811.97
2023-05-05T09:30:06.576Z,101813.22
2023-05-05T09:32:47.445Z,101814.28
2023-05-05T09:35:14.768Z,101816.03
2023-05-05T09:37:41.634Z,101817.13
2023-05-05T09:40:09.268Z,101830.63
2023-05-05T09:42:37.423Z,101834.19
2023-05-05T09:45:07.280Z,101832.56
2023-05-05T09:47:35.552Z,101830.34
2023-05-05T09:50:02.116Z,101832.53
2023-05-05T09:52:28.672Z,101822.25
2023-05-05T09:54:56.414Z,101822.53
2023-05-05T09:57:27.548Z,101821.38
2023-05-05T10:00:02.424Z,101820.75
2023-05-05T10:02:37.403Z,101814.91
2023-05-05T10:05:09.353Z,101822.13
2023-05-05T10:07:36.883Z,101830.59
2023-05-05T10:10:08.348Z,101833.69
2023-05-05T10:12:35.569Z,101833.63
2023-05-05T10:15:03.156Z,101840.31
2023-05-05T10:17:36.516Z,101845.41
2023-05-05T10:20:06.726Z,101853.66
2023-05-05T10:22:34.871Z,101861.53
2023-05-05T10:25:06.394Z,101858.25
2023-05-05T10:27:37.942Z,101855.31
2023-05-05T10:30:06.337Z,101858.69
2023-05-05T10:33:00.558Z,101865.19
2023-05-05T10:35:34.641Z,101855.50
2023-05-05T10:38:01.594Z,101848.91
2023-05-05T10:40:28.218Z,101845.25
2023-05-05T10:42:55.069Z,101835.50
2023-05-05T10:45:21.553Z,101835.78
2023-05-05T10:47:49.277Z,101829.97
2023-05-05T10:50:17.522Z,101821.69
2023-05-05T10:53:08.928Z,101819.31
2023-05-05T10:55:46.433Z,101823.34
2023-05-05T10:58:46.955Z,101833.28
2023-05-05T11:01:34.509Z,101830.22
2023-05-05T11:04:23.566Z,101837.50
2023-05-05T11:07:09.649Z,101841.38
2023-05-05T11:09:57.668Z,101840.25
2023-05-05T11:12:24.272Z,101846.63
2023-05-05T11:15:26.146Z,101849.91
2023-05-05T11:17:53.493Z,101848.13
2023-05-05T11:20:35.724Z,101840.13
2023-05-05T11:23:02.026Z,101840.00
2023-05-05T11:25:34.353Z,101844.03
2023-05-05T11:28:13.354Z,101845.06
2023-05-05T11:30:55.042Z,101841.66
2023-05-05T11:33:31.594Z,101834.19
2023-05-05T11:36:04.110Z,101840.50
2023-05-05T11:39:00.329Z,101844.47
2023-05-05T11:41:32.946Z,101849.34
2023-05-05T11:44:17.021Z,101844.19
2023-05-05T11:46:52.584Z,101854.56
2023-05-05T11:49:29.541Z,101857.78
2023-05-05T11:52:00.467Z,101850.50
2023-05-05T11:54:27.311Z,101856.47
2023-05-05T11:56:55.021Z,101852.78
2023-05-05T11:59:21.671Z,101864.94
2023-05-05T12:01:48.210Z,101866.00
2023-05-05T12:04:15.985Z,101871.34
2023-05-05T12:06:42.915Z,101864.16
2023-05-05T12:09:15.882Z,101868.97
2023-05-05T12:11:51.979Z,101866.31
2023-05-05T12:14:18.528Z,101869.81
2023-05-05T12:17:20.669Z,101859.81
2023-05-05T12:19:51.208Z,101856.59
2023-05-05T12:22:26.156Z,101866.84
2023-05-05T12:24:56.086Z,101850.38
2023-05-05T12:27:23.270Z,101848.63
2023-05-05T12:29:50.893Z,101857.09
2023-05-05T12:32:21.703Z,101865.00
2023-05-05T12:34:49.171Z,101859.53
2023-05-05T12:37:18.916Z,101854.78
2023-05-05T12:39:45.504Z,101849.59
2023-05-05T12:42:11.994Z,101850.25
2023-05-05T12:44:39.560Z,101845.44
2023-05-05T12:47:06.907Z,101844.84
2023-05-05T12:49:50.296Z,101858.66
2023-05-05T12:52:16.946Z,101854.34
2023-05-05T12:54:59.872Z,101847.44
2023-05-05T12:57:26.390Z,101849.38
2023-05-05T12:59:53.263Z,101854.78
2023-05-05T13:02:20.719Z,101849.69
2023-05-05T13:04:54.137Z,101849.88
2023-05-05T13:07:21.800Z,101855.34
2023-05-05T13:09:49.492Z,101847.31
2023-05-05T13:12:17.756Z,101851.63
2023-05-05T13:14:44.481Z,101838.53
2023-05-05T13:17:11.473Z,101845.66
2023-05-05T13:19:42.372Z,101838.84
2023-05-05T13:22:10.047Z,101834.50
2023-05-05T13:24:49.639Z,101839.03
2023-05-05T13:27:18.431Z,101849.09
2023-05-05T13:29:44.811Z,101846.94
2023-05-05T13:32:11.445Z,101849.31
2023-05-05T13:34:39.251Z,101852.56
2023-05-05T13:37:05.988Z,101849.19
2023-05-05T13:39:32.414Z,101849.75
2023-05-05T13:41:58.813Z,101844.66
2023-05-05T13:44:25.241Z,101849.97
2023-05-05T13:46:51.653Z,101853.13
2023-05-05T13:49:18.127Z,101855.28
2023-05-05T13:51:46.616Z,101854.91
2023-05-05T13:54:13.158Z,101857.56
2023-05-05T13:56:39.549Z,101862.06
2023-05-05T13:59:05.933Z,101863.78
2023-05-05T14:01:32.508Z,101854.06
2023-05-05T14:03:59.109Z,101858.66
2023-05-05T14:06:25.918Z,101855.50
2023-05-05T14:08:52.399Z,101860.00
2023-05-05T14:11:20.935Z,101853.34
2023-05-05T14:13:47.999Z,101847.84
2023-05-05T14:16:14.509Z,101845.81
2023-05-05T14:18:41.016Z,101834.75
2023-05-05T14:21:07.523Z,101840.84
2023-05-05T14:23:33.946Z,101840.50
2023-05-05T14:26:00.745Z,101830.31
2023-05-05T14:28:27.154Z,101823.41
2023-05-05T14:30:53.699Z,101811.06
2023-05-05T14:33:20.255Z,101822.63
2023-05-05T14:35:46.644Z,101823.66
2023-05-05T14:38:13.117Z,101816.69
2023-05-05T14:40:39.529Z,101809.97
2023-05-05T14:43:06.590Z,101812.31
2023-05-05T14:45:33.319Z,101813.06
2023-05-05T14:47:59.804Z,101824.34
2023-05-05T14:50:26.439Z,101813.78
2023-05-05T14:52:52.819Z,101811.69
2023-05-05T14:55:19.391Z,101806.88
2023-05-05T14:57:45.896Z,101804.13
2023-05-05T15:00:12.808Z,101811.97
2023-05-05T15:02:39.263Z,101809.38
2023-05-05T15:05:06.241Z,101818.69
2023-05-05T15:07:32.759Z,101821.75
2023-05-05T15:09:59.222Z,101830.28
2023-05-05T15:12:26.028Z,101832.81
2023-05-05T15:14:52.433Z,101823.41
2023-05-05T15:17:18.901Z,101826.31
2023-05-05T15:19:45.309Z,101816.50
2023-05-05T15:22:11.798Z,101812.59
2023-05-05T15:24:38.221Z,101818.78
2023-05-05T15:27:04.740Z,101815.63
2023-05-05T15:29:31.254Z,101820.91
2023-05-05T15:31:57.706Z,101821.63
2023-05-05T15:34:24.152Z,101813.56
2023-05-05T15:36:50.760Z,101813.38
2023-05-05T15:39:17.356Z,101811.09
2023-05-05T15:41:43.750Z,101815.06
2023-05-05T15:44:11.900Z,101799.66
2023-05-05T15:46:39.083Z,101813.88
2023-05-05T15:49:05.535Z,101812.16
2023-05-05T15:51:32.227Z,101814.31
2023-05-05T15:53:59.411Z,101809.16
2023-05-05T15:56:29.107Z,101802.09
2023-05-05T15:58:56.415Z,101807.81
2023-05-05T16:01:22.822Z,101794.13
2023-05-05T16:03:49.307Z,101783.25
2023-05-05T16:06:15.700Z,101791.13
2023-05-05T16:08:42.116Z,101789.78
2023-05-05T16:11:08.502Z,101783.75
2023-05-05T16:13:34.946Z,101778.06
2023-05-05T16:16:01.550Z,101775.53
2023-05-05T16:18:27.915Z,101777.22
2023-05-05T16:20:54.483Z,101787.03
2023-05-05T16:23:20.936Z,101771.31
2023-05-05T16:25:47.309Z,101773.38
2023-05-05T16:28:13.745Z,101775.00
2023-05-05T16:30:42.648Z,101772.06
2023-05-05T16:33:09.249Z,101776.00
2023-05-05T16:35:36.171Z,101768.81
2023-05-05T16:38:02.622Z,101770.38
2023-05-05T16:40:29.353Z,101766.47
2023-05-05T16:42:55.757Z,101763.63
2023-05-05T16:45:22.518Z,101769.41
2023-05-05T16:47:49.081Z,101765.56
2023-05-05T16:50:17.254Z,101773.91
2023-05-05T16:52:43.638Z,101776.78
2023-05-05T16:55:10.208Z,101768.63
2023-05-05T16:57:36.944Z,101773.03
2023-05-05T17:00:04.981Z,101781.94
2023-05-05T17:02:31.472Z,101773.84
2023-05-05T17:04:57.928Z,101770.97
2023-05-05T17:07:24.339Z,101769.19
2023-05-05T17:09:51.026Z,101772.84
2023-05-05T17:12:17.566Z,101768.47
2023-05-05T17:14:45.402Z,101773.06
2023-05-05T17:17:11.886Z,101764.63
2023-05-05T17:19:38.320Z,101770.44
2023-05-05T17:22:04.789Z,101767.13
2023-05-05T17:24:31.246Z,101773.38
2023-05-05T17:26:58.355Z,101774.16
2023-05-05T17:29:24.773Z,101777.25
2023-05-05T17:31:51.534Z,101772.69
2023-05-05T17:34:18.028Z,101772.47
2023-05-05T17:36:44.405Z,101772.00
2023-05-05T17:39:11.432Z,101770.50
2023-05-05T17:41:37.912Z,101774.09
2023-05-05T17:44:04.378Z,101767.16
2023-05-05T17:46:30.853Z,101776.97
2023-05-05T17:48:57.344Z,101777.09
2023-05-05T17:51:23.833Z,101772.06
2023-05-05T17:53:50.281Z,101767.84
2023-05-05T17:56:17.977Z,101777.28
2023-05-05T17:58:44.355Z,101773.13
2023-05-05T18:01:19.981Z,101776.19
2023-05-05T18:03:46.577Z,101777.28
2023-05-05T18:06:12.988Z,101774.13
2023-05-05T18:08:39.402Z,101782.72
2023-05-05T18:11:05.792Z,101780.16
2023-05-05T18:13:32.169Z,101781.97
2023-05-05T18:15:58.599Z,101792.16
2023-05-05T18:18:26.147Z,101781.78
2023-05-05T18:20:52.579Z,101787.34
2023-05-05T18:23:18.977Z,101782.03
2023-05-05T18:25:45.446Z,101784.84
2023-05-05T18:28:12.259Z,101789.75
2023-05-05T18:30:38.695Z,101795.19
2023-05-05T18:33:05.181Z,101792.41
2023-05-05T18:35:31.662Z,101799.63
2023-05-05T18:37:58.014Z,101799.16
2023-05-05T18:40:24.724Z,101794.19
2023-05-05T18:42:51.727Z,101796.16
2023-05-05T18:45:18.225Z,101796.66
2023-05-05T18:47:44.640Z,101799.69
2023-05-05T18:50:11.233Z,101795.53
2023-05-05T18:52:37.623Z,101796.66
2023-05-05T18:55:04.236Z,101802.59
2023-05-05T18:57:30.706Z,101804.75
2023-05-05T18:59:57.104Z,101811.25
2023-05-05T19:02:23.544Z,101808.53
2023-05-05T19:04:51.315Z,101821.34
2023-05-05T19:07:31.257Z,101813.88
2023-05-05T19:10:00.547Z,101815.97
2023-05-05T19:12:26.939Z,101815.53
2023-05-05T19:14:53.339Z,101829.09
2023-05-05T19:17:19.714Z,101823.06
2023-05-05T19:19:46.080Z,101815.94
2023-05-05T19:22:12.527Z,101824.56
2023-05-05T19:24:38.944Z,101828.28
2023-05-05T19:27:05.400Z,101831.00
2023-05-05T19:29:32.077Z,101826.13
2023-05-05T19:31:58.553Z,101833.94
2023-05-05T19:34:25.008Z,101824.19
2023-05-05T19:36:51.424Z,101828.94
2023-05-05T19:39:17.785Z,101825.22
2023-05-05T19:41:44.745Z,101821.28
2023-05-05T19:44:11.125Z,101832.47
2023-05-05T19:46:37.729Z,101825.56
2023-05-05T19:49:04.213Z,101829.03
2023-05-05T19:51:31.602Z,101824.91
2023-05-05T19:53:59.396Z,101824.72
2023-05-05T19:56:25.997Z,101821.63
2023-05-05T19:58:57.443Z,101817.97
2023-05-05T20:01:23.978Z,101828.31
2023-05-05T20:03:50.980Z,101832.53
2023-05-05T20:06:17.446Z,101829.88
2023-05-05T20:08:43.863Z,101841.28
2023-05-05T20:11:10.337Z,101841.84
2023-05-05T20:13:38.209Z,101847.44
2023-05-05T20:16:06.008Z,101846.91
2023-05-05T20:18:32.796Z,101852.50
2023-05-05T20:20:59.302Z,101851.19
2023-05-05T20:23:26.580Z,101858.38
2023-05-05T20:25:54.105Z,101848.88
2023-05-05T20:28:20.560Z,101848.13
2023-05-05T20:30:46.948Z,101843.09
2023-05-05T20:33:13.311Z,101844.47
2023-05-05T20:35:39.699Z,101853.00
2023-05-05T20:38:06.188Z,101846.09
2023-05-05T20:40:33.613Z,101837.63
2023-05-05T20:42:59.978Z,101841.09
2023-05-05T20:45:26.422Z,101845.13
2023-05-05T20:47:53.023Z,101842.78
2023-05-05T20:50:22.367Z,101849.13
2023-05-05T20:52:49.386Z,101837.75
2023-05-05T20:55:15.876Z,101838.81
2023-05-05T20:57:42.368Z,101849.41
2023-05-05T21:00:09.483Z,101850.25
2023-05-05T21:02:36.376Z,101846.28
2023-05-05T21:05:02.960Z,101851.06
2023-05-05T21:07:31.202Z,101854.25
2023-05-05T21:09:57.670Z,101860.91
2023-05-05T21:12:24.156Z,101851.63
2023-05-05T21:14:50.628Z,101864.09
2023-05-05T21:17:17.062Z,101856.69
2023-05-05T21:19:43.474Z,101863.34
2023-05-05T21:22:09.864Z,101861.22
2023-05-05T21:24:38.127Z,101862.03
2023-05-05T21:27:04.576Z,101860.16
2023-05-05T21:29:37.368Z,101854.59
2023-05-05T21:32:04.946Z,101855.69
2023-05-05T21:34:31.374Z,101850.41
2023-05-05T21:36:58.049Z,101845.91
2023-05-05T21:39:24.926Z,101857.81
2023-05-05T21:41:51.285Z,101847.22
2023-05-05T21:44:17.628Z,101853.06
2023-05-05T21:46:44.101Z,101850.44
2023-05-05T21:49:17.613Z,101851.50
2023-05-05T21:51:45.609Z,101851.50
2023-05-05T21:54:12.071Z,101852.56
2023-05-05T21:56:38.741Z,101851.00
2023-05-05T21:59:05.556Z,101845.72
2023-05-05T22:01:32.128Z,101851.03
2023-05-05T22:03:58.783Z,101844.66
2023-05-05T22:06:25.306Z,101848.91
2023-05-05T22:08:51.728Z,101839.91
2023-05-05T22:11:18.540Z,101843.09
2023-05-05T22:13:46.226Z,101838.88
2023-05-05T22:16:12.749Z,101834.09
2023-05-05T22:18:39.159Z,101829.34
2023-05-05T22:21:05.777Z,101839.41
2023-05-05T22:23:32.223Z,101841.00
2023-05-05T22:25:58.601Z,101846.28
2023-05-05T22:28:25.055Z,101848.94
2023-05-05T22:30:51.497Z,101843.13
2023-05-05T22:33:17.892Z,101845.50
2023-05-05T22:35:44.334Z,101848.69
2023-05-05T22:38:10.791Z,101853.44
2023-05-05T22:40:37.160Z,101851.34
2023-05-05T22:43:03.568Z,101852.13
2023-05-05T22:45:30.081Z,101841.56
2023-05-05T22:47:56.542Z,101845.50
2023-05-05T22:50:22.954Z,101842.34
2023-05-05T22:52:49.316Z,101845.81
2023-05-05T22:55:16.035Z,101841.56
2023-05-05T22:57:42.507Z,101838.13
2023-05-05T23:00:10.547Z,101835.75
2023-05-05T23:02:37.743Z,101838.91
2023-05-05T23:05:04.413Z,101838.38
2023-05-05T23:07:30.893Z,101832.84
2023-05-05T23:09:57.275Z,101827.22
2023-05-05T23:12:23.747Z,101826.97
2023-05-05T23:14:50.392Z,101825.41
2023-05-05T23:17:16.841Z,101830.97
2023-05-05T23:19:43.246Z,101827.25
2023-05-05T23:22:09.614Z,101836.00
2023-05-05T23:24:35.980Z,101837.56
2023-05-05T23:27:02.990Z,101843.13
2023-05-05T23:29:29.680Z,101839.69
2023-05-05T23:31:56.317Z,101842.34
2023-05-05T23:34:22.780Z,101837.81
2023-05-05T23:36:49.144Z,101834.38
2023-05-05T23:39:15.532Z,101833.31
2023-05-05T23:41:41.993Z,101834.38
2023-05-05T23:44:08.372Z,101837.78
2023-05-05T23:46:34.845Z,101835.16
2023-05-05T23:49:01.250Z,101836.50
2023-05-05T23:51:27.683Z,101833.59
2023-05-05T23:53:56.305Z,101823.00
2023-05-05T23:56:23.485Z,101823.78
2023-05-05T23:58:50.009Z,101829.88
